Latest News: CDIP is now hiring. Job description.

TOPANGA NEARSHORE, CA - 103

GPS Positions

GPS Time
Latitude
Degrees
Longitude
Degrees
Gap
 
Distance
NM
Speed
Knots
Direction
Degrees
May 20, 05:11 34.02221° -118.57849° 2 min 0.01 0.06
337°
May 20, 05:09 34.02217° -118.57848° 8 min 0.01 0.01
248°
May 20, 05:01 34.02218° -118.57845° 2 min 0.01 0.05
May 20, 04:59 34.02215° -118.57845° 8 min 0.01 0.02
212°
May 20, 04:51 34.02218° -118.57843° 2 min 0.01 0.12
344°
May 20, 04:49 34.02212° -118.57841° 8 min 0.01 0.02
328°
May 20, 04:41 34.02209° -118.57838° 2 min 0.01 0.03
90°
May 20, 04:39 34.02209° -118.57841° 8 min 0.01 0.01
320°
May 20, 04:31 34.02206° -118.57838° 2 min 0.01 0.05
220°
May 20, 04:29 34.02209° -118.57836° 8 min 0.01 0.02
306°
May 20, 04:21 34.02206° -118.57832° 2 min 0.01 0.01
May 20, 04:19 34.02206° -118.57832° 8 min 0.01 0.03
262°
May 20, 04:11 34.02206° -118.57825° 2 min 0.01 0.00
May 20, 04:09 34.02206° -118.57825° 8 min 0.01 0.00
May 20, 04:01 34.02206° -118.57825° 1 min 0.01 0.03
301°
May 20, 03:59 34.02206° -118.57824° 8 min 0.01 0.02
20°
May 20, 03:51 34.02202° -118.57825° 2 min 0.01 0.04
May 20, 03:49 34.02200° -118.57825° 8 min 0.01 0.02
180°
May 20, 03:41 34.02203° -118.57825° 2 min 0.01 0.04
180°
May 20, 03:39 34.02206° -118.57825° 7 min 0.01 0.04
37°
May 20, 03:31 34.02198° -118.57832° 2 min 0.01 0.02
May 20, 03:29 34.02197° -118.57832° 8 min 0.02 0.01
May 20, 03:21 34.02195° -118.57832° 2 min 0.02 0.01
May 20, 03:19 34.02194° -118.57832° 8 min 0.02 0.02
212°
May 20, 03:11 34.02197° -118.57830° 1 min 0.02 0.08
301°
May 20, 03:09 34.02195° -118.57825° 8 min 0.02 0.03
42°
May 20, 03:01 34.02190° -118.57830° 2 min 0.02 0.07
209°
May 20, 02:59 34.02194° -118.57828° 8 min 0.02 0.00
May 20, 02:51 34.02194° -118.57828° 10 min 0.02 0.02
261°
May 20, 02:41 34.02195° -118.57822° 2 min 0.02 0.00
May 20, 02:39 34.02195° -118.57822° 8 min 0.02 0.02
209°
May 20, 02:31 34.02198° -118.57819° 2 min 0.02 0.00
May 20, 02:29 34.02198° -118.57819° 8 min 0.02 0.01
225°
May 20, 02:21 34.02200° -118.57817° 2 min 0.02 0.05
315°
May 20, 02:19 34.02198° -118.57815° 8 min 0.02 0.01
180°
May 20, 02:11 34.02200° -118.57815° 2 min 0.02 0.04
180°
May 20, 02:09 34.02202° -118.57815° 8 min 0.01 0.01
May 20, 02:01 34.02200° -118.57815° 2 min 0.02 0.05
209°
May 20, 01:59 34.02202° -118.57813° 8 min 0.02 0.02
209°
May 20, 01:51 34.02206° -118.57811° 1 min 0.01 0.01
180°
May 20, 01:49 34.02206° -118.57811° 8 min 0.01 0.01
90°
May 20, 01:41 34.02206° -118.57813° 2 min 0.01 0.03
270°
May 20, 01:39 34.02206° -118.57811° 8 min 0.01 0.02
209°
May 20, 01:31 34.02210° -118.57809° 2 min 0.01 0.00
May 20, 01:29 34.02210° -118.57809° 8 min 0.01 0.01
270°
May 20, 01:21 34.02210° -118.57806° 2 min 0.02 0.00
May 20, 01:19 34.02210° -118.57806° 8 min 0.02 0.01
135°
May 20, 01:11 34.02212° -118.57809° 2 min 0.01 0.03
270°
May 20, 01:09 34.02212° -118.57806° 8 min 0.01 0.02
328°
May 20, 01:01 34.02209° -118.57804° 1 min 0.02 0.02
180°
May 20, 00:59 34.02210° -118.57804° 8 min 0.02 0.02
148°
May 20, 00:51 34.02213° -118.57806° 1 min 0.01 0.00
May 20, 00:49 34.02213° -118.57806° 8 min 0.01 0.01
270°
May 20, 00:41 34.02213° -118.57804° 2 min 0.02 0.03
90°
May 20, 00:39 34.02213° -118.57806° 8 min 0.01 0.02
180°
May 20, 00:31 34.02218° -118.57806° 2 min 0.01 0.01
May 20, 00:29 34.02217° -118.57806° 8 min 0.01 0.02
337°
May 20, 00:21 34.02213° -118.57804° 1 min 0.02 0.00
May 20, 00:19 34.02213° -118.57804° 8 min 0.02 0.01
140°
May 20, 00:11 34.02215° -118.57806° 2 min 0.01 0.05
180°
May 20, 00:09 34.02218° -118.57806° 8 min 0.01 0.01
140°
May 20, 00:01 34.02221° -118.57809° 2 min 0.01 0.10
222°
May 19, 23:59 34.02225° -118.57804° 8 min 0.01 0.01
May 19, 23:51 34.02222° -118.57804° 1 min 0.01 0.00
May 19, 23:49 34.02222° -118.57804° 8 min 0.01 0.00
May 19, 23:41 34.02222° -118.57804° 2 min 0.01 0.03
90°
May 19, 23:39 34.02222° -118.57806° 8 min 0.01 0.01
270°
May 19, 23:31 34.02222° -118.57804° 2 min 0.01 0.03
180°
May 19, 23:29 34.02224° -118.57804° 8 min 0.01 0.01
121°
May 19, 23:21 34.02225° -118.57806° 2 min 0.01 0.04
180°
May 19, 23:19 34.02227° -118.57806° 8 min 0.01 0.01
May 19, 23:11 34.02225° -118.57806° 2 min 0.01 0.05
140°
May 19, 23:09 34.02227° -118.57809° 8 min 0.01 0.01
270°
May 19, 23:01 34.02227° -118.57806° 2 min 0.01 0.04
May 19, 22:59 34.02225° -118.57806° 8 min 0.01 0.02
180°
May 19, 22:51 34.02230° -118.57806° 2 min 0.01 0.08
121°
May 19, 22:49 34.02232° -118.57811° 8 min 0.01 0.01
90°
May 19, 22:41 34.02232° -118.57813° 2 min 0.01 0.02
90°
May 19, 22:39 34.02232° -118.57815° 8 min 0.01 0.02
107°
May 19, 22:31 34.02234° -118.57819° 1 min 0.01 0.08
117°
May 19, 22:29 34.02235° -118.57824° 18 min 0.01 0.04
150°
May 19, 22:11 34.02251° -118.57835° 1 min 0.02 0.13
May 19, 22:10 34.02245° -118.57835° 8 min 0.01 0.04
159°
May 19, 22:01 34.02254° -118.57838° 1 min 0.02 0.29
344°
May 19, 22:00 34.02243° -118.57835° 28 min 0.01 0.03
350°
May 19, 21:32 34.02222° -118.57830° 9 min 0.00 0.05
150°
May 19, 21:22 34.02234° -118.57838° 2 min 0.01 0.17
195°
May 19, 21:19 34.02245° -118.57835° 1 h, 37 min 0.01 0.01
49°
May 19, 19:41 34.02230° -118.57856° 9 min 0.01 0.02
248°
May 19, 19:31 34.02232° -118.57849° 30 min 0.01 0.01
54°
May 19, 19:01 34.02228° -118.57856° 1 min 0.01 0.07
225°
May 19, 19:00 34.02230° -118.57854° 18 min 0.01 0.01
May 19, 18:41 34.02227° -118.57854° 1 min 0.01 0.06
May 19, 18:39 34.02224° -118.57854° 18 min 0.01 0.00
90°
May 19, 18:21 34.02224° -118.57856° 2 min 0.01 0.03
90°
May 19, 18:19 34.02224° -118.57858° 8 min 0.01 0.01
270°
May 19, 18:11 34.02224° -118.57856° 2 min 0.01 0.03
May 19, 18:09 34.02222° -118.57856° 8 min 0.01 0.02
148°
May 19, 18:01 34.02225° -118.57858° 2 min 0.01 0.06
328°
May 19, 17:59 34.02222° -118.57856° 8 min 0.01 0.01
90°
May 19, 17:51 34.02222° -118.57858° 2 min 0.01 0.05
225°
May 19, 17:49 34.02224° -118.57856° 8 min 0.01 0.01
May 19, 17:41 34.02222° -118.57856° 2 min 0.01 0.00
May 19, 17:39 34.02222° -118.57856° 8 min 0.01 0.02
29°
May 19, 17:31 34.02218° -118.57858° 2 min 0.01 0.06
76°
May 19, 17:29 34.02217° -118.57862° 8 min 0.01 0.02
May 19, 17:21 34.02213° -118.57862° 2 min 0.02 0.02
May 19, 17:19 34.02212° -118.57862° 8 min 0.02 0.01
239°
May 19, 17:11 34.02213° -118.57860° 2 min 0.01 0.08
180°
May 19, 17:09 34.02217° -118.57860° 8 min 0.01 0.01
May 19, 17:01 34.02215° -118.57860° 2 min 0.01 0.00
May 19, 16:59 34.02215° -118.57860° 8 min 0.01 0.01
40°
May 19, 16:51 34.02213° -118.57862° 2 min 0.02 0.02
May 19, 16:49 34.02212° -118.57862° 8 min 0.02 0.01
270°
May 19, 16:41 34.02212° -118.57858° 2 min 0.01 0.02
90°
May 19, 16:39 34.02212° -118.57860° 8 min 0.01 0.01
May 19, 16:31 34.02209° -118.57860° 2 min 0.02 0.00
May 19, 16:29 34.02209° -118.57860° 8 min 0.02 0.01
May 19, 16:21 34.02206° -118.57860° 2 min 0.02 0.03
90°
May 19, 16:19 34.02206° -118.57862° 8 min 0.02 0.01
180°
May 19, 16:11 34.02209° -118.57862° 2 min 0.02 0.04
239°
May 19, 16:09 34.02210° -118.57860° 8 min 0.02 0.01
135°
May 19, 16:01 34.02212° -118.57862° 2 min 0.02 0.06
180°
May 19, 15:59 34.02215° -118.57862° 8 min 0.02 0.03
294°
May 19, 15:51 34.02213° -118.57856° 2 min 0.01 0.05
May 19, 15:49 34.02210° -118.57856° 8 min 0.01 0.05
170°
May 19, 15:41 34.02221° -118.57858° 2 min 0.01 0.04
May 19, 15:39 34.02218° -118.57858° 8 min 0.01 0.01
59°
May 19, 15:31 34.02217° -118.57860° 2 min 0.01 0.01
180°
May 19, 15:29 34.02218° -118.57860° 8 min 0.01 0.01
301°
May 19, 15:21 34.02217° -118.57858° 1 min 0.01 0.04
May 19, 15:19 34.02215° -118.57858° 8 min 0.01 0.02
331°
May 19, 15:11 34.02212° -118.57856° 2 min 0.01 0.04
121°
May 19, 15:09 34.02213° -118.57858° 8 min 0.01 0.00
May 19, 15:01 34.02213° -118.57858° 2 min 0.01 0.04
180°
May 19, 14:59 34.02215° -118.57858° 8 min 0.01 0.01
180°
May 19, 14:51 34.02218° -118.57858° 2 min 0.01 0.04
180°
May 19, 14:49 34.02221° -118.57858° 8 min 0.01 0.02
270°
May 19, 14:41 34.02221° -118.57854° 2 min 0.01 0.05
40°
May 19, 14:39 34.02218° -118.57856° 8 min 0.01 0.00
May 19, 14:31 34.02218° -118.57856° 2 min 0.01 0.01
May 19, 14:29 34.02217° -118.57856° 8 min 0.01 0.02
134°
May 19, 14:21 34.02221° -118.57860° 2 min 0.01 0.02
270°
May 19, 14:19 34.02221° -118.57858° 8 min 0.01 0.02
212°
May 19, 14:11 34.02224° -118.57856° 2 min 0.01 0.03
May 19, 14:09 34.02222° -118.57856° 8 min 0.01 0.00
May 19, 14:01 34.02222° -118.57856° 2 min 0.01 0.00
May 19, 13:59 34.02222° -118.57856° 8 min 0.01 0.01
301°
May 19, 13:51 34.02221° -118.57854° 2 min 0.01 0.02
180°
May 19, 13:49 34.02222° -118.57854° 8 min 0.01 0.03
160°
May 19, 13:41 34.02227° -118.57856° 2 min 0.01 0.00
May 19, 13:39 34.02227° -118.57856° 8 min 0.01 0.01
320°
May 19, 13:31 34.02225° -118.57854° 2 min 0.01 0.04
301°
May 19, 13:29 34.02224° -118.57851° 8 min 0.01 0.02
157°
May 19, 13:21 34.02228° -118.57854° 2 min 0.01 0.03
90°
May 19, 13:19 34.02228° -118.57856° 8 min 0.01 0.02
270°
May 19, 13:11 34.02228° -118.57851° 2 min 0.01 0.04
301°
May 19, 13:09 34.02227° -118.57849° 8 min 0.01 0.01
180°
May 19, 13:01 34.02230° -118.57849° 2 min 0.01 0.05
209°
May 19, 12:59 34.02232° -118.57848° 8 min 0.01 0.03
318°
May 19, 12:51 34.02228° -118.57843° 2 min 0.01 0.03
90°
May 19, 12:49 34.02228° -118.57845° 8 min 0.01 0.03
160°
May 19, 12:41 34.02234° -118.57848° 2 min 0.01 0.00
May 19, 12:39 34.02234° -118.57848° 8 min 0.01 0.02
312°
May 19, 12:31 34.02230° -118.57843° 2 min 0.01 0.03
270°
May 19, 12:29 34.02230° -118.57841° 8 min 0.01 0.00
May 19, 12:21 34.02230° -118.57841° 2 min 0.01 0.04
180°
May 19, 12:19 34.02232° -118.57841° 8 min 0.01 0.02
231°
May 19, 12:11 34.02235° -118.57836° 2 min 0.01 0.05
45°
May 19, 12:09 34.02234° -118.57838° 7 min 0.01 0.01
90°
May 19, 12:01 34.02234° -118.57841° 2 min 0.01 0.03
270°
May 19, 11:59 34.02234° -118.57838° 8 min 0.01 0.01
180°
May 19, 11:51 34.02235° -118.57838° 2 min 0.01 0.03
90°
May 19, 11:49 34.02235° -118.57841° 8 min 0.01 0.02
107°
May 19, 11:41 34.02237° -118.57845° 2 min 0.01 0.05
140°
May 19, 11:39 34.02239° -118.57848° 8 min 0.01 0.01
270°
May 19, 11:31 34.02239° -118.57845° 2 min 0.01 0.03
270°
May 19, 11:29 34.02239° -118.57843° 8 min 0.01 0.01
180°
May 19, 11:21 34.02240° -118.57843° 2 min 0.01 0.03
90°
May 19, 11:19 34.02240° -118.57845° 8 min 0.01 0.02
331°
May 19, 11:11 34.02237° -118.57843° 2 min 0.01 0.05
140°
May 19, 11:09 34.02239° -118.57845° 8 min 0.01 0.03
325°
May 19, 11:01 34.02234° -118.57841° 2 min 0.01 0.00
May 19, 10:59 34.02234° -118.57841° 8 min 0.01 0.02
117°
May 19, 10:51 34.02235° -118.57845° 2 min 0.01 0.06
328°
May 19, 10:49 34.02232° -118.57843° 8 min 0.01 0.02
129°
May 19, 10:41 34.02235° -118.57848° 2 min 0.01 0.05
315°
May 19, 10:39 34.02234° -118.57845° 8 min 0.01 0.02
148°
May 19, 10:31 34.02237° -118.57848° 2 min 0.01 0.00
May 19, 10:29 34.02237° -118.57848° 8 min 0.01 0.02
328°
May 19, 10:21 34.02234° -118.57845° 2 min 0.01 0.05
135°
May 19, 10:19 34.02235° -118.57848° 8 min 0.01 0.00
May 19, 10:11 34.02235° -118.57848° 2 min 0.01 0.00
May 19, 10:09 34.02235° -118.57848° 8 min 0.01 0.01
34°
May 19, 10:01 34.02234° -118.57849° 2 min 0.01 0.00
May 19, 09:59 34.02234° -118.57849° 8 min 0.01 0.02
239°
May 19, 09:51 34.02235° -118.57845° 2 min 0.01 0.00
May 19, 09:49 34.02235° -118.57845° 8 min 0.01 0.02
110°
May 19, 09:41 34.02237° -118.57849° 2 min 0.01 0.02
May 19, 09:39 34.02235° -118.57849° 8 min 0.01 0.01
May 19, 09:31 34.02232° -118.57849° 2 min 0.01 0.03
90°
May 19, 09:29 34.02232° -118.57851° 8 min 0.01 0.01
320°
May 19, 09:21 34.02230° -118.57849° 2 min 0.01 0.00
May 19, 09:19 34.02230° -118.57849° 8 min 0.01 0.02
180°
May 19, 09:11 34.02235° -118.57849° 2 min 0.01 0.00
May 19, 09:09 34.02235° -118.57849° 8 min 0.01 0.04
13°
May 19, 09:01 34.02227° -118.57851° 2 min 0.01 0.03
270°
May 19, 08:59 34.02227° -118.57849° 8 min 0.01 0.01
180°
May 19, 08:51 34.02230° -118.57849° 1 min 0.01 0.04
326°
May 19, 08:49 34.02228° -118.57848° 8 min 0.01 0.01
146°
May 19, 08:41 34.02230° -118.57849° 2 min 0.01 0.06
32°
May 19, 08:39 34.02227° -118.57851° 8 min 0.01 0.01
90°
May 19, 08:31 34.02227° -118.57854° 1 min 0.01 0.02
180°
May 19, 08:29 34.02228° -118.57854° 8 min 0.01 0.02
29°
May 19, 08:21 34.02225° -118.57856° 2 min 0.01 0.00
May 19, 08:19 34.02225° -118.57856° 8 min 0.01 0.01
90°
May 19, 08:11 34.02225° -118.57858° 1 min 0.01 0.06
220°
May 19, 08:09 34.02227° -118.57856° 8 min 0.01 0.02
29°
May 19, 08:01 34.02224° -118.57858° 1 min 0.01 0.02
90°
May 19, 07:59 34.02224° -118.57860° 8 min 0.01 0.02
301°
May 19, 07:51 34.02222° -118.57856° 2 min 0.01 0.02
May 19, 07:49 34.02221° -118.57856° 8 min 0.01 0.02
May 19, 07:41 34.02215° -118.57856° 1 min 0.01 0.00
May 19, 07:39 34.02215° -118.57856° 8 min 0.01 0.01
May 19, 07:31 34.02213° -118.57856° 1 min 0.01 0.10
180°
May 19, 07:29 34.02218° -118.57856° 8 min 0.01 0.00
May 19, 07:21 34.02217° -118.57856° 1 min 0.01 0.06
180°
May 19, 07:19 34.02221° -118.57856° 8 min 0.01 0.00
May 19, 07:11 34.02221° -118.57856° 2 min 0.01 0.00
May 19, 07:09 34.02221° -118.57856° 8 min 0.01 0.00
May 19, 07:01 34.02221° -118.57856° 1 min 0.01 0.00
May 19, 06:59 34.02221° -118.57856° 8 min 0.01 0.01
May 19, 06:51 34.02217° -118.57856° 2 min 0.01 0.00
May 19, 06:49 34.02217° -118.57856° 8 min 0.01 0.00
180°
May 19, 06:41 34.02218° -118.57856° 2 min 0.01 0.00
May 19, 06:39 34.02218° -118.57856° 8 min 0.01 0.00
May 19, 06:31 34.02217° -118.57856° 2 min 0.01 0.01
180°
May 19, 06:29 34.02218° -118.57856° 8 min 0.01 0.02
228°
May 19, 06:21 34.02222° -118.57851° 2 min 0.01 0.07
73°
May 19, 06:19 34.02221° -118.57856° 8 min 0.01 0.01
270°
May 19, 06:11 34.02221° -118.57854° 2 min 0.01 0.04
May 19, 06:09 34.02218° -118.57854° 8 min 0.01 0.01
140°
May 19, 06:01 34.02221° -118.57856° 2 min 0.01 0.04
239°
May 19, 05:59 34.02222° -118.57854° 8 min 0.01 0.01
225°
May 19, 05:51 34.02224° -118.57851° 2 min 0.01 0.03
May 19, 05:49 34.02222° -118.57851° 8 min 0.01 0.01
270°
May 19, 05:41 34.02222° -118.57848° 1 min 0.01 0.04
301°
May 19, 05:39 34.02221° -118.57845° 8 min 0.01 0.02
253°
May 19, 05:31 34.02222° -118.57841° 10 min 0.00 0.01
135°
May 19, 05:21 34.02224° -118.57843° 2 min 0.01 0.04
239°
May 19, 05:19 34.02225° -118.57841° 8 min 0.00 0.01
270°
May 19, 05:11 34.02225° -118.57838° 2 min 0.00 0.05
140°
May 19, 05:09 34.02227° -118.57841° 8 min 0.00 0.02
301°
May 19, 05:01 34.02225° -118.57836° 1 min 0.00 0.04
59°
May 19, 04:59 34.02224° -118.57838° 8 min 0.00 0.02
250°
May 19, 04:51 34.02225° -118.57835° 2 min 0.00 0.02
May 19, 04:49 34.02224° -118.57835° 8 min 0.00 0.03
180°
May 19, 04:41 34.02230° -118.57835° 2 min 0.00 0.03
May 19, 04:39 34.02228° -118.57835° 8 min 0.00 0.01
225°
May 19, 04:31 34.02230° -118.57832° 2 min 0.00 0.03
270°
May 19, 04:29 34.02230° -118.57830° 8 min 0.01 0.03
325°
May 19, 04:21 34.02225° -118.57825° 2 min 0.00 0.00
May 19, 04:19 34.02225° -118.57825° 8 min 0.00 0.01
May 19, 04:11 34.02222° -118.57825° 2 min 0.00 0.03
180°
May 19, 04:09 34.02224° -118.57825° 8 min 0.00 0.01
May 19, 04:01 34.02221° -118.57825° 2 min 0.00 0.02
270°
May 19, 03:59 34.02221° -118.57824° 8 min 0.00 0.02
309°
May 19, 03:51 34.02217° -118.57819° 2 min 0.01 0.01
180°
May 19, 03:49 34.02218° -118.57819° 8 min 0.01 0.01
292°
May 19, 03:41 34.02217° -118.57817° 2 min 0.01 0.06
270°
May 19, 03:39 34.02217° -118.57813° 8 min 0.01 0.03
41°
May 19, 03:31 34.02212° -118.57819° 2 min 0.01 0.00
May 19, 03:29 34.02212° -118.57819° 8 min 0.01 0.02
May 19, 03:21 34.02206° -118.57819° 2 min 0.01 0.00
May 19, 03:19 34.02206° -118.57819° 8 min 0.01 0.01
May 19, 03:11 34.02203° -118.57819° 2 min 0.01 0.04
180°
May 19, 03:09 34.02206° -118.57819° 8 min 0.01 0.02
156°
May 19, 03:01 34.02210° -118.57822° 2 min 0.01 0.03
270°
May 19, 02:59 34.02210° -118.57819° 8 min 0.01 0.01
180°
May 19, 02:51 34.02212° -118.57819° 2 min 0.01 0.03
90°
May 19, 02:49 34.02212° -118.57822° 8 min 0.01 0.01
315°
May 19, 02:41 34.02210° -118.57819° 2 min 0.01 0.03
180°
May 19, 02:39 34.02212° -118.57819° 8 min 0.01 0.01
180°
May 19, 02:31 34.02213° -118.57819° 1 min 0.01 0.00
May 19, 02:29 34.02213° -118.57819° 8 min 0.01 0.01
270°
May 19, 02:21 34.02213° -118.57817° 2 min 0.01 0.05
May 19, 02:19 34.02210° -118.57817° 8 min 0.01 0.03
16°
May 19, 02:11 34.02203° -118.57819° 2 min 0.01 0.00
May 19, 02:09 34.02203° -118.57819° 8 min 0.01 0.00
May 19, 02:01 34.02203° -118.57819° 2 min 0.01 0.03
270°
May 19, 01:59 34.02203° -118.57817° 8 min 0.01 0.01
May 19, 01:51 34.02202° -118.57817° 2 min 0.01 0.02
180°
May 19, 01:49 34.02203° -118.57817° 8 min 0.01 0.00
May 19, 01:41 34.02203° -118.57817° 2 min 0.01 0.05
220°
May 19, 01:39 34.02206° -118.57815° 8 min 0.01 0.01
256°
May 19, 01:31 34.02206° -118.57811° 2 min 0.01 0.01
May 19, 01:29 34.02206° -118.57811° 8 min 0.01 0.03
212°
May 19, 01:21 34.02212° -118.57806° 2 min 0.01 0.02
180°
May 19, 01:19 34.02213° -118.57806° 8 min 0.01 0.01
May 19, 01:11 34.02212° -118.57806° 2 min 0.01 0.07
90°
May 19, 01:09 34.02212° -118.57811° 8 min 0.01 0.01
270°
May 19, 01:01 34.02212° -118.57809° 2 min 0.01 0.03
270°
May 19, 00:59 34.02212° -118.57806° 8 min 0.01 0.02
209°
May 19, 00:51 34.02215° -118.57804° 2 min 0.02 0.03
90°
May 19, 00:49 34.02215° -118.57806° 8 min 0.01 0.03
200°
May 19, 00:41 34.02221° -118.57804° 2 min 0.01 0.00
May 19, 00:39 34.02221° -118.57804° 8 min 0.01 0.01
May 19, 00:31 34.02218° -118.57804° 2 min 0.01 0.06
180°
May 19, 00:29 34.02222° -118.57804° 8 min 0.01 0.00
May 19, 00:21 34.02222° -118.57804° 1 min 0.01 0.00
May 19, 00:19 34.02222° -118.57804° 8 min 0.01 0.02
90°
May 19, 00:11 34.02222° -118.57809° 2 min 0.01 0.03
180°
May 19, 00:09 34.02224° -118.57809° 8 min 0.01 0.02
151°
May 19, 00:01 34.02227° -118.57811° 1 min 0.01 0.06
320°
May 18, 23:59 34.02225° -118.57809° 8 min 0.01 0.01
270°
May 18, 23:51 34.02225° -118.57806° 2 min 0.01 0.08
121°
May 18, 23:49 34.02227° -118.57811° 8 min 0.01 0.02
331°
May 18, 23:41 34.02224° -118.57809° 2 min 0.01 0.04
121°
May 18, 23:39 34.02225° -118.57811° 7 min 0.01 0.02
180°
May 18, 23:31 34.02228° -118.57811° 2 min 0.01 0.00
May 18, 23:29 34.02228° -118.57811° 8 min 0.01 0.01
270°
May 18, 23:21 34.02228° -118.57809° 1 min 0.01 0.05
225°
May 18, 23:19 34.02230° -118.57806° 8 min 0.01 0.01
90°
May 18, 23:11 34.02230° -118.57809° 2 min 0.01 0.03
90°
May 18, 23:09 34.02230° -118.57811° 8 min 0.01 0.01
270°
May 18, 23:01 34.02230° -118.57809° 2 min 0.01 0.00
May 18, 22:59 34.02230° -118.57809° 8 min 0.01 0.01
270°
May 18, 22:51 34.02230° -118.57806° 2 min 0.01 0.03
90°
May 18, 22:49 34.02230° -118.57809° 8 min 0.01 0.01
315°
May 18, 22:41 34.02228° -118.57806° 1 min 0.01 0.05
135°
May 18, 22:39 34.02230° -118.57809° 8 min 0.01 0.01
90°
May 18, 22:31 34.02230° -118.57811° 2 min 0.01 0.00
May 18, 22:29 34.02230° -118.57811° 8 min 0.01 0.02
239°
May 18, 22:21 34.02232° -118.57806° 2 min 0.01 0.04
121°
May 18, 22:19 34.02234° -118.57809° 8 min 0.01 0.01
59°
May 18, 22:11 34.02232° -118.57811° 1 min 0.01 0.02
180°
May 18, 22:09 34.02234° -118.57811° 8 min 0.01 0.00
May 18, 22:01 34.02234° -118.57811° 1 min 0.01 0.04
180°
May 18, 21:59 34.02235° -118.57811° 8 min 0.01 0.01
May 18, 21:51 34.02232° -118.57811° 1 min 0.01 0.03
180°
May 18, 21:50 34.02234° -118.57811° 7 min 0.01 0.01
90°
May 18, 21:42 34.02234° -118.57815° 9 min 0.01 0.03
206°
May 18, 21:32 34.02240° -118.57811° 1 min 0.02 0.22
May 18, 21:30 34.02228° -118.57811° 8 min 0.01 0.04
102°
May 18, 21:21 34.02230° -118.57822° 1 min 0.01 0.06
220°
May 18, 21:20 34.02232° -118.57819° 10 min 0.01 0.01
239°
May 18, 21:10 34.02234° -118.57817° 8 min 0.01 0.02
20°
May 18, 21:01 34.02228° -118.57819° 10 min 0.01 0.03
128°
May 18, 20:51 34.02234° -118.57828° 2 min 0.01 0.00
May 18, 20:49 34.02234° -118.57828° 8 min 0.01 0.01
90°
May 18, 20:41 34.02234° -118.57830° 2 min 0.01 0.03
90°
May 18, 20:39 34.02234° -118.57832° 8 min 0.01 0.01
May 18, 20:31 34.02232° -118.57832° 1 min 0.01 0.05
40°
May 18, 20:29 34.02230° -118.57835° 8 min 0.00 0.02
167°
May 18, 20:21 34.02235° -118.57836° 2 min 0.01 0.03
90°
May 18, 20:19 34.02235° -118.57838° 7 min 0.01 0.03
May 18, 20:11 34.02228° -118.57838° 2 min 0.00 0.04
59°
May 18, 20:09 34.02227° -118.57841° 8 min 0.00 0.02
180°
May 18, 20:01 34.02232° -118.57841° 2 min 0.01 0.04
May 18, 19:59 34.02230° -118.57841° 8 min 0.01 0.01
45°
May 18, 19:51 34.02228° -118.57843° 2 min 0.01 0.03
180°
May 18, 19:49 34.02230° -118.57843° 8 min 0.01 0.01
140°
May 18, 19:41 34.02232° -118.57845° 2 min 0.01 0.04
239°
May 18, 19:39 34.02234° -118.57843° 8 min 0.01 0.03
30°
May 18, 19:31 34.02227° -118.57848° 1 min 0.01 0.06
180°
May 18, 19:29 34.02230° -118.57848° 8 min 0.01 0.00
May 18, 19:21 34.02230° -118.57848° 1 min 0.01 0.02
90°
May 18, 19:19 34.02230° -118.57849° 8 min 0.01 0.01
May 18, 19:11 34.02228° -118.57849° 2 min 0.01 0.02
270°
May 18, 19:09 34.02228° -118.57848° 8 min 0.01 0.01
146°
May 18, 19:01 34.02230° -118.57849° 2 min 0.01 0.04
180°
May 18, 18:59 34.02232° -118.57849° 8 min 0.01 0.04
14°
May 18, 18:51 34.02225° -118.57851° 1 min 0.01 0.00
May 18, 18:49 34.02225° -118.57851° 8 min 0.01 0.02
73°
May 18, 18:41 34.02224° -118.57856° 2 min 0.01 0.04
239°
May 18, 18:39 34.02225° -118.57854° 8 min 0.01 0.01
59°
May 18, 18:31 34.02224° -118.57856° 2 min 0.01 0.02
180°
May 18, 18:29 34.02225° -118.57856° 8 min 0.01 0.00
May 18, 18:21 34.02225° -118.57856° 2 min 0.01 0.02
May 18, 18:19 34.02224° -118.57856° 8 min 0.01 0.00
May 18, 18:11 34.02224° -118.57856° 2 min 0.01 0.05
45°
May 18, 18:09 34.02222° -118.57858° 8 min 0.01 0.01
180°
May 18, 18:01 34.02225° -118.57858° 2 min 0.01 0.04
180°
May 18, 17:59 34.02227° -118.57858° 8 min 0.01 0.02
May 18, 17:51 34.02224° -118.57858° 2 min 0.01 0.00
May 18, 17:49 34.02224° -118.57858° 8 min 0.01 0.01
90°
May 18, 17:41 34.02224° -118.57860° 2 min 0.01 0.02
180°
May 18, 17:39 34.02225° -118.57860° 8 min 0.01 0.01
May 18, 17:31 34.02224° -118.57860° 2 min 0.01 0.04
121°
May 18, 17:29 34.02225° -118.57862° 7 min 0.01 0.03
301°
May 18, 17:21 34.02222° -118.57856° 2 min 0.01 0.03
90°
May 18, 17:19 34.02222° -118.57858° 8 min 0.01 0.01
225°
May 18, 17:11 34.02224° -118.57856° 1 min 0.01 0.07
315°
May 18, 17:10 34.02222° -118.57854° 8 min 0.01 0.03
56°
May 18, 17:01 34.02218° -118.57860° 1 min 0.01 0.07
209°
May 18, 17:00 34.02221° -118.57858° 30 min 0.01 0.00
328°
May 18, 16:29 34.02217° -118.57856° 8 min 0.01 0.00
May 18, 16:21 34.02217° -118.57856° 2 min 0.01 0.05
180°
May 18, 16:19 34.02221° -118.57856° 8 min 0.01 0.02
May 18, 16:11 34.02215° -118.57856° 2 min 0.01 0.00
May 18, 16:09 34.02215° -118.57856° 8 min 0.01 0.02
301°
May 18, 16:01 34.02213° -118.57851° 1 min 0.01 0.04
180°
May 18, 15:59 34.02215° -118.57851° 8 min 0.01 0.02
May 18, 15:51 34.02212° -118.57851° 2 min 0.01 0.02
180°
May 18, 15:49 34.02213° -118.57851° 8 min 0.01 0.01
May 18, 15:41 34.02212° -118.57851° 2 min 0.01 0.02
180°
May 18, 15:39 34.02213° -118.57851° 8 min 0.01 0.01
270°
May 18, 15:31 34.02213° -118.57849° 2 min 0.01 0.05
140°
May 18, 15:29 34.02215° -118.57851° 8 min 0.01 0.01
270°
May 18, 15:21 34.02215° -118.57849° 2 min 0.01 0.00
May 18, 15:19 34.02215° -118.57849° 38 min 0.01 0.01
246°
May 18, 14:41 34.02218° -118.57841° 2 min 0.00 0.01
May 18, 14:39 34.02217° -118.57841° 8 min 0.00 0.00
180°
May 18, 14:31 34.02218° -118.57841° 2 min 0.00 0.03
270°
May 18, 14:29 34.02218° -118.57838° 8 min 0.00 0.01
180°
May 18, 14:21 34.02221° -118.57838° 2 min 0.00 0.00
May 18, 14:19 34.02221° -118.57838° 7 min 0.00 0.05
May 18, 14:11 34.02209° -118.57841° 2 min 0.01 0.02
180°
May 18, 14:09 34.02210° -118.57841° 8 min 0.01 0.02
270°
May 18, 14:01 34.02210° -118.57836° 2 min 0.01 0.02
May 18, 13:59 34.02209° -118.57836° 8 min 0.01 0.02
197°
May 18, 13:51 34.02213° -118.57835° 2 min 0.01 0.05
May 18, 13:49 34.02210° -118.57835° 8 min 0.01 0.00
May 18, 13:41 34.02210° -118.57835° 2 min 0.01 0.06
May 18, 13:39 34.02206° -118.57835° 8 min 0.01 0.01
220°
May 18, 13:31 34.02209° -118.57832° 2 min 0.01 0.04
May 18, 13:29 34.02206° -118.57832° 8 min 0.01 0.02
270°
May 18, 13:21 34.02206° -118.57828° 2 min 0.01 0.00
May 18, 13:19 34.02206° -118.57828° 8 min 0.01 0.02
209°
May 18, 13:11 34.02210° -118.57825° 2 min 0.01 0.02
May 18, 13:09 34.02209° -118.57825° 8 min 0.01 0.01
180°
May 18, 13:01 34.02210° -118.57825° 2 min 0.01 0.02
May 18, 12:59 34.02209° -118.57825° 8 min 0.01 0.01
331°
May 18, 12:51 34.02206° -118.57824° 2 min 0.01 0.00
May 18, 12:49 34.02206° -118.57824° 8 min 0.01 0.01
220°
May 18, 12:41 34.02209° -118.57822° 2 min 0.01 0.04
239°
May 18, 12:39 34.02210° -118.57819° 8 min 0.01 0.01
May 18, 12:31 34.02209° -118.57819° 2 min 0.01 0.00
May 18, 12:29 34.02209° -118.57819° 8 min 0.01 0.01
180°
May 18, 12:21 34.02210° -118.57819° 2 min 0.01 0.00
May 18, 12:19 34.02210° -118.57819° 8 min 0.01 0.02
212°
May 18, 12:11 34.02213° -118.57817° 2 min 0.01 0.00
May 18, 12:09 34.02213° -118.57817° 8 min 0.01 0.02
203°
May 18, 12:01 34.02217° -118.57815° 2 min 0.01 0.02
270°
May 18, 11:59 34.02217° -118.57813° 8 min 0.01 0.02
54°
May 18, 11:51 34.02215° -118.57817° 2 min 0.01 0.00
May 18, 11:49 34.02215° -118.57817° 8 min 0.01 0.01
270°
May 18, 11:41 34.02215° -118.57815° 2 min 0.01 0.00
May 18, 11:39 34.02215° -118.57815° 8 min 0.01 0.00
May 18, 11:31 34.02215° -118.57815° 2 min 0.01 0.05
180°
May 18, 11:29 34.02218° -118.57815° 8 min 0.01 0.00
May 18, 11:21 34.02218° -118.57815° 1 min 0.01 0.08
223°
May 18, 11:19 34.02222° -118.57811° 8 min 0.01 0.01
180°
May 18, 11:11 34.02224° -118.57811° 2 min 0.01 0.02
180°
May 18, 11:09 34.02225° -118.57811° 8 min 0.01 0.01
May 18, 11:01 34.02224° -118.57811° 2 min 0.01 0.04
121°
May 18, 10:59 34.02225° -118.57813° 8 min 0.01 0.01
May 18, 10:51 34.02224° -118.57813° 2 min 0.01 0.04
239°
May 18, 10:49 34.02225° -118.57811° 8 min 0.01 0.02
70°
May 18, 10:41 34.02224° -118.57815° 2 min 0.01 0.02
180°
May 18, 10:39 34.02225° -118.57815° 8 min 0.01 0.00
May 18, 10:31 34.02225° -118.57815° 2 min 0.01 0.05
209°
May 18, 10:29 34.02227° -118.57813° 8 min 0.01 0.01
90°
May 18, 10:21 34.02227° -118.57815° 2 min 0.01 0.04
May 18, 10:19 34.02225° -118.57815° 8 min 0.01 0.00
May 18, 10:11 34.02225° -118.57815° 2 min 0.01 0.02
May 18, 10:09 34.02224° -118.57815° 8 min 0.01 0.01
121°
May 18, 10:01 34.02225° -118.57817° 2 min 0.01 0.04
59°
May 18, 09:59 34.02224° -118.57819° 8 min 0.01 0.01
180°
May 18, 09:51 34.02225° -118.57819° 2 min 0.01 0.05
220°
May 18, 09:49 34.02227° -118.57817° 8 min 0.01 0.01
239°
May 18, 09:41 34.02228° -118.57815° 2 min 0.01 0.07
29°
May 18, 09:39 34.02225° -118.57817° 8 min 0.01 0.01
140°
May 18, 09:31 34.02227° -118.57819° 2 min 0.01 0.04
May 18, 09:29 34.02225° -118.57819° 8 min 0.01 0.01
180°
May 18, 09:21 34.02227° -118.57819° 2 min 0.01 0.00
May 18, 09:19 34.02227° -118.57819° 8 min 0.01 0.01
180°
May 18, 09:11 34.02228° -118.57819° 2 min 0.01 0.00
May 18, 09:09 34.02228° -118.57819° 8 min 0.01 0.02
29°
May 18, 09:01 34.02225° -118.57822° 2 min 0.01 0.05
140°
May 18, 08:59 34.02227° -118.57824° 8 min 0.01 0.01
180°
May 18, 08:51 34.02230° -118.57824° 2 min 0.01 0.04
34°
May 18, 08:49 34.02228° -118.57825° 8 min 0.01 0.03
190°
May 18, 08:41 34.02235° -118.57824° 2 min 0.01 0.03
May 18, 08:39 34.02234° -118.57824° 8 min 0.01 0.02
20°
May 18, 08:31 34.02230° -118.57825° 2 min 0.01 0.00
May 18, 08:29 34.02230° -118.57825° 8 min 0.01 0.02
180°
May 18, 08:21 34.02235° -118.57825° 2 min 0.01 0.05
May 18, 08:19 34.02232° -118.57825° 8 min 0.01 0.05
354°
May 18, 08:11 34.02221° -118.57824° 2 min 0.00 0.04
May 18, 08:09 34.02218° -118.57824° 8 min 0.01 0.02
160°
May 18, 08:01 34.02222° -118.57825° 1 min 0.00 0.06
May 18, 07:59 34.02218° -118.57825° 8 min 0.00 0.01
180°
May 18, 07:51 34.02221° -118.57825° 2 min 0.00 0.00
May 18, 07:49 34.02221° -118.57825° 8 min 0.00 0.01
180°
May 18, 07:41 34.02222° -118.57825° 2 min 0.00 0.00
May 18, 07:39 34.02222° -118.57825° 8 min 0.00 0.02
May 18, 07:31 34.02218° -118.57825° 2 min 0.00 0.00
May 18, 07:29 34.02218° -118.57825° 8 min 0.00 0.01
180°
May 18, 07:21 34.02221° -118.57825° 2 min 0.00 0.05
40°
May 18, 07:19 34.02218° -118.57828° 8 min 0.00 0.03
160°
May 18, 07:11 34.02224° -118.57830° 2 min 0.00 0.00
May 18, 07:09 34.02224° -118.57830° 8 min 0.00 0.01
239°
May 18, 07:01 34.02225° -118.57828° 2 min 0.00 0.00
May 18, 06:59 34.02225° -118.57828° 8 min 0.00 0.01
May 18, 06:51 34.02222° -118.57828° 2 min 0.00 0.00
May 18, 06:49 34.02222° -118.57828° 8 min 0.00 0.02
148°
May 18, 06:41 34.02225° -118.57830° 2 min 0.00 0.04
180°
May 18, 06:39 34.02227° -118.57830° 8 min 0.00 0.01
May 18, 06:31 34.02225° -118.57830° 2 min 0.00 0.00
May 18, 06:29 34.02225° -118.57830° 8 min 0.00 0.01
140°
May 18, 06:21 34.02227° -118.57832° 2 min 0.00 0.03
90°
May 18, 06:19 34.02227° -118.57835° 8 min 0.00 0.02
180°
May 18, 06:11 34.02232° -118.57835° 2 min 0.01 0.00
May 18, 06:09 34.02232° -118.57835° 8 min 0.01 0.01
320°
May 18, 06:01 34.02230° -118.57832° 2 min 0.00 0.03
270°
May 18, 05:59 34.02230° -118.57830° 8 min 0.01 0.01
May 18, 05:51 34.02227° -118.57830° 2 min 0.00 0.07
107°
May 18, 05:49 34.02228° -118.57835° 8 min 0.00 0.01
180°
May 18, 05:41 34.02230° -118.57835° 2 min 0.00 0.04
180°
May 18, 05:39 34.02232° -118.57835° 8 min 0.01 0.01
May 18, 05:31 34.02230° -118.57835° 2 min 0.00 0.00
May 18, 05:29 34.02230° -118.57835° 8 min 0.00 0.01
315°
May 18, 05:21 34.02228° -118.57832° 2 min 0.00 0.00
May 18, 05:19 34.02228° -118.57832° 8 min 0.00 0.02
204°
May 18, 05:11 34.02232° -118.57830° 2 min 0.01 0.05
320°
May 18, 05:09 34.02230° -118.57828° 8 min 0.01 0.02
301°
May 18, 05:01 34.02228° -118.57824° 2 min 0.01 0.03
270°
May 18, 04:59 34.02228° -118.57822° 8 min 0.01 0.01
90°
May 18, 04:51 34.02228° -118.57824° 2 min 0.01 0.04
301°
May 18, 04:49 34.02227° -118.57822° 8 min 0.01 0.02
331°
May 18, 04:41 34.02224° -118.57819° 1 min 0.01 0.02
180°
May 18, 04:39 34.02225° -118.57819° 8 min 0.01 0.01
May 18, 04:31 34.02224° -118.57819° 2 min 0.01 0.00
May 18, 04:29 34.02224° -118.57819° 8 min 0.01 0.01
315°
May 18, 04:21 34.02222° -118.57817° 2 min 0.01 0.03
180°
May 18, 04:19 34.02224° -118.57817° 8 min 0.01 0.01
270°
May 18, 04:11 34.02224° -118.57815° 2 min 0.01 0.02
270°
May 18, 04:09 34.02224° -118.57813° 8 min 0.01 0.01
May 18, 04:01 34.02221° -118.57813° 2 min 0.01 0.04
May 18, 03:59 34.02218° -118.57813° 8 min 0.01 0.03
340°
May 18, 03:51 34.02213° -118.57811° 2 min 0.01 0.00
May 18, 03:49 34.02213° -118.57811° 8 min 0.01 0.02
70°
May 18, 03:41 34.02212° -118.57815° 2 min 0.01 0.00
May 18, 03:39 34.02212° -118.57815° 8 min 0.01 0.01
270°
May 18, 03:31 34.02212° -118.57811° 2 min 0.01 0.00
May 18, 03:29 34.02212° -118.57811° 8 min 0.01 0.03
20°
May 18, 03:21 34.02206° -118.57813° 2 min 0.01 0.03
59°
May 18, 03:19 34.02206° -118.57815° 8 min 0.01 0.01
331°
May 18, 03:11 34.02203° -118.57813° 2 min 0.01 0.00
May 18, 03:09 34.02203° -118.57813° 8 min 0.01 0.01
270°
May 18, 03:01 34.02203° -118.57811° 2 min 0.02 0.00
May 18, 02:59 34.02203° -118.57811° 8 min 0.02 0.00
May 18, 02:51 34.02203° -118.57811° 2 min 0.02 0.04
180°
May 18, 02:49 34.02206° -118.57811° 8 min 0.01 0.00
May 18, 02:41 34.02206° -118.57811° 2 min 0.01 0.04
May 18, 02:39 34.02203° -118.57811° 8 min 0.02 0.00
May 18, 02:31 34.02203° -118.57811° 2 min 0.02 0.02
May 18, 02:29 34.02202° -118.57811° 8 min 0.02 0.00
May 18, 02:21 34.02202° -118.57811° 2 min 0.02 0.02
180°
May 18, 02:19 34.02203° -118.57811° 8 min 0.02 0.01
180°
May 18, 02:11 34.02206° -118.57811° 2 min 0.01 0.04
May 18, 02:09 34.02203° -118.57811° 8 min 0.02 0.02
239°
May 18, 02:01 34.02206° -118.57806° 2 min 0.02 0.03
90°
May 18, 01:59 34.02206° -118.57809° 8 min 0.02 0.01
180°
May 18, 01:51 34.02209° -118.57809° 2 min 0.01 0.03
270°
May 18, 01:49 34.02209° -118.57806° 8 min 0.02 0.01
320°
May 18, 01:41 34.02206° -118.57804° 2 min 0.02 0.04
180°
May 18, 01:39 34.02209° -118.57804° 8 min 0.02 0.01
May 18, 01:31 34.02206° -118.57804° 1 min 0.02 0.04
180°
May 18, 01:29 34.02209° -118.57804° 8 min 0.02 0.01
270°
May 18, 01:21 34.02209° -118.57803° 2 min 0.02 0.02
90°
May 18, 01:19 34.02209° -118.57804° 8 min 0.02 0.03
62°
May 18, 01:11 34.02206° -118.57811° 2 min 0.01 0.07
270°
May 18, 01:09 34.02206° -118.57806° 8 min 0.02 0.01
180°
May 18, 01:01 34.02209° -118.57806° 2 min 0.02 0.04
May 18, 00:59 34.02206° -118.57806° 8 min 0.02 0.02
209°
May 18, 00:51 34.02210° -118.57804° 2 min 0.02 0.00
May 18, 00:49 34.02210° -118.57804° 8 min 0.02 0.01
May 18, 00:41 34.02209° -118.57804° 2 min 0.02 0.00
May 18, 00:39 34.02209° -118.57804° 8 min 0.02 0.01
180°
May 18, 00:31 34.02210° -118.57804° 2 min 0.02 0.00
May 18, 00:29 34.02210° -118.57804° 8 min 0.02 0.01
180°
May 18, 00:21 34.02212° -118.57804° 2 min 0.02 0.00
May 18, 00:19 34.02212° -118.57804° 8 min 0.02 0.01
270°
May 18, 00:11 34.02212° -118.57803° 2 min 0.02 0.00
May 18, 00:09 34.02212° -118.57803° 8 min 0.02 0.01
270°
May 18, 00:01 34.02212° -118.57800° 2 min 0.02 0.07
59°
May 17, 23:59 34.02210° -118.57804° 8 min 0.02 0.01
May 17, 23:51 34.02209° -118.57804° 2 min 0.02 0.02
270°
May 17, 23:49 34.02209° -118.57803° 8 min 0.02 0.01
180°
May 17, 23:41 34.02210° -118.57803° 2 min 0.02 0.00
May 17, 23:39 34.02210° -118.57803° 8 min 0.02 0.01
180°
May 17, 23:31 34.02213° -118.57803° 2 min 0.02 0.00
May 17, 23:29 34.02213° -118.57803° 8 min 0.02 0.01
301°
May 17, 23:21 34.02212° -118.57800° 2 min 0.02 0.00
May 17, 23:19 34.02212° -118.57800° 8 min 0.02 0.00
May 17, 23:11 34.02212° -118.57800° 2 min 0.02 0.03
May 17, 23:09 34.02210° -118.57800° 8 min 0.02 0.01
59°
May 17, 23:01 34.02209° -118.57803° 1 min 0.02 0.02
180°
May 17, 22:59 34.02210° -118.57803° 8 min 0.02 0.02
287°
May 17, 22:51 34.02209° -118.57798° 1 min 0.02 0.03
270°
May 17, 22:49 34.02209° -118.57796° 7 min 0.02 0.00
May 17, 22:41 34.02209° -118.57796° 10 min 0.02 0.01
320°
May 17, 22:31 34.02206° -118.57793° 9 min 0.02 0.04
170°
May 17, 22:22 34.02217° -118.57796° 10 min 0.02 0.01
May 17, 22:11 34.02215° -118.57796° 2 min 0.02 0.04
180°
May 17, 22:09 34.02217° -118.57796° 8 min 0.02 0.02
May 17, 22:01 34.02213° -118.57796° 2 min 0.02 0.00
May 17, 21:59 34.02213° -118.57796° 8 min 0.02 0.01
180°
May 17, 21:51 34.02215° -118.57796° 2 min 0.02 0.00
May 17, 21:49 34.02215° -118.57796° 8 min 0.02 0.01
180°
May 17, 21:41 34.02217° -118.57796° 2 min 0.02 0.00
May 17, 21:39 34.02217° -118.57796° 8 min 0.02 0.01
270°
May 17, 21:31 34.02217° -118.57793° 2 min 0.02 0.03
90°
May 17, 21:29 34.02217° -118.57796° 8 min 0.02 0.00
May 17, 21:21 34.02217° -118.57796° 2 min 0.02 0.03
90°
May 17, 21:19 34.02217° -118.57798° 8 min 0.02 0.00
180°
May 17, 21:11 34.02218° -118.57798° 1 min 0.02 0.03
270°
May 17, 21:09 34.02218° -118.57796° 8 min 0.02 0.03
90°
May 17, 21:01 34.02218° -118.57803° 2 min 0.02 0.01
May 17, 20:59 34.02217° -118.57803° 8 min 0.02 0.01
90°
May 17, 20:51 34.02217° -118.57804° 2 min 0.01 0.01
180°
May 17, 20:49 34.02218° -118.57804° 8 min 0.01 0.01
209°
May 17, 20:41 34.02221° -118.57803° 2 min 0.02 0.05
29°
May 17, 20:39 34.02218° -118.57804° 8 min 0.01 0.00
May 17, 20:31 34.02218° -118.57804° 2 min 0.01 0.04
180°
May 17, 20:29 34.02221° -118.57804° 8 min 0.01 0.01
180°
May 17, 20:21 34.02222° -118.57804° 2 min 0.01 0.03
180°
May 17, 20:19 34.02224° -118.57804° 8 min 0.01 0.00
May 17, 20:11 34.02224° -118.57804° 2 min 0.01 0.08
63°
May 17, 20:09 34.02222° -118.57809° 8 min 0.01 0.02
212°
May 17, 20:01 34.02225° -118.57806° 2 min 0.01 0.04
180°
May 17, 19:59 34.02227° -118.57806° 8 min 0.01 0.01
270°
May 17, 19:51 34.02227° -118.57804° 2 min 0.01 0.04
May 17, 19:49 34.02225° -118.57804° 8 min 0.01 0.01
140°
May 17, 19:41 34.02227° -118.57806° 1 min 0.01 0.00
May 17, 19:39 34.02227° -118.57806° 8 min 0.01 0.01
180°
May 17, 19:31 34.02228° -118.57806° 1 min 0.01 0.04
59°
May 17, 19:29 34.02227° -118.57809° 8 min 0.01 0.01
180°
May 17, 19:21 34.02228° -118.57809° 1 min 0.01 0.06
135°
May 17, 19:19 34.02230° -118.57811° 8 min 0.01 0.01
270°
May 17, 19:11 34.02230° -118.57809° 1 min 0.01 0.00
May 17, 19:09 34.02230° -118.57809° 8 min 0.01 0.02
151°
May 17, 19:01 34.02234° -118.57811° 2 min 0.01 0.02
May 17, 18:59 34.02232° -118.57811° 18 min 0.01 0.01
212°
May 17, 18:41 34.02235° -118.57809° 1 min 0.01 0.00
May 17, 18:40 34.02235° -118.57809° 18 min 0.01 0.01
90°
May 17, 18:21 34.02235° -118.57817° 2 min 0.01 0.06
32°
May 17, 18:19 34.02232° -118.57819° 8 min 0.01 0.03
239°
May 17, 18:11 34.02235° -118.57813° 2 min 0.01 0.03
270°
May 17, 18:09 34.02235° -118.57811° 8 min 0.01 0.04
13°
May 17, 18:01 34.02227° -118.57813° 1 min 0.01 0.07
90°
May 17, 17:59 34.02227° -118.57817° 18 min 0.01 0.00
90°
May 17, 17:41 34.02227° -118.57819° 1 min 0.01 0.00
May 17, 17:39 34.02227° -118.57819° 7 min 0.01 0.03
200°
May 17, 17:31 34.02232° -118.57817° 10 min 0.01 0.04
May 17, 17:21 34.02221° -118.57819° 1 min 0.01 0.06
May 17, 17:19 34.02217° -118.57819° 7 min 0.01 0.04
41°
May 17, 17:12 34.02212° -118.57825° 12 min 0.01 0.04
317°
May 17, 16:59 34.02202° -118.57815° 8 min 0.01 0.04
139°
May 17, 16:51 34.02209° -118.57822° 2 min 0.01 0.04
121°
May 17, 16:49 34.02210° -118.57824° 8 min 0.01 0.01
146°
May 17, 16:41 34.02212° -118.57825° 2 min 0.01 0.06
250°
May 17, 16:39 34.02213° -118.57822° 8 min 0.01 0.01
May 17, 16:31 34.02212° -118.57822° 2 min 0.01 0.05
45°
May 17, 16:29 34.02210° -118.57824° 8 min 0.01 0.01
270°
May 17, 16:21 34.02210° -118.57822° 1 min 0.01 0.04
59°
May 17, 16:19 34.02209° -118.57824° 8 min 0.01 0.01
May 17, 16:11 34.02206° -118.57824° 2 min 0.01 0.01
180°
May 17, 16:09 34.02206° -118.57824° 8 min 0.01 0.01
220°
May 17, 16:01 34.02209° -118.57822° 2 min 0.01 0.03
270°
May 17, 15:59 34.02209° -118.57819° 8 min 0.01 0.02
156°
May 17, 15:51 34.02213° -118.57822° 2 min 0.01 0.03
270°
May 17, 15:49 34.02213° -118.57819° 8 min 0.01 0.01
59°
May 17, 15:41 34.02212° -118.57822° 2 min 0.01 0.03
May 17, 15:39 34.02210° -118.57822° 8 min 0.01 0.00
May 17, 15:31 34.02210° -118.57822° 2 min 0.01 0.00
May 17, 15:29 34.02210° -118.57822° 8 min 0.01 0.01
225°
May 17, 15:21 34.02212° -118.57819° 2 min 0.01 0.06
32°
May 17, 15:19 34.02209° -118.57822° 38 min 0.01 0.00
270°
May 17, 14:41 34.02209° -118.57819° 2 min 0.01 0.00
May 17, 14:39 34.02209° -118.57819° 8 min 0.01 0.02
107°
May 17, 14:31 34.02210° -118.57824° 2 min 0.01 0.09
312°
May 17, 14:29 34.02206° -118.57819° 8 min 0.01 0.02
180°
May 17, 14:21 34.02210° -118.57819° 2 min 0.01 0.00
May 17, 14:19 34.02210° -118.57819° 8 min 0.01 0.01
May 17, 14:11 34.02209° -118.57819° 2 min 0.01 0.00
May 17, 14:09 34.02209° -118.57819° 8 min 0.01 0.01
180°
May 17, 14:01 34.02210° -118.57819° 2 min 0.01 0.03
180°
May 17, 13:59 34.02212° -118.57819° 8 min 0.01 0.02
180°
May 17, 13:51 34.02215° -118.57819° 2 min 0.01 0.04
May 17, 13:49 34.02213° -118.57819° 8 min 0.01 0.02
May 17, 13:41 34.02209° -118.57819° 2 min 0.01 0.00
May 17, 13:39 34.02209° -118.57819° 8 min 0.01 0.01
May 17, 13:31 34.02206° -118.57819° 2 min 0.01 0.05
May 17, 13:29 34.02203° -118.57819° 8 min 0.01 0.00
May 17, 13:21 34.02203° -118.57819° 2 min 0.01 0.00
May 17, 13:19 34.02203° -118.57819° 8 min 0.01 0.01
270°
May 17, 13:11 34.02203° -118.57817° 1 min 0.01 0.04
180°
May 17, 13:09 34.02206° -118.57817° 8 min 0.01 0.01
248°
May 17, 13:01 34.02206° -118.57815° 2 min 0.01 0.00
May 17, 12:59 34.02206° -118.57815° 8 min 0.01 0.02
180°
May 17, 12:51 34.02210° -118.57815° 2 min 0.01 0.00
May 17, 12:49 34.02210° -118.57815° 8 min 0.01 0.01
May 17, 12:41 34.02209° -118.57815° 2 min 0.01 0.02
270°
May 17, 12:39 34.02209° -118.57813° 8 min 0.01 0.01
90°
May 17, 12:31 34.02209° -118.57815° 2 min 0.01 0.00
May 17, 12:29 34.02209° -118.57815° 8 min 0.01 0.03
35°
May 17, 12:21 34.02203° -118.57819° 2 min 0.01 0.03
270°
May 17, 12:19 34.02203° -118.57817° 8 min 0.01 0.01
220°
May 17, 12:11 34.02206° -118.57815° 2 min 0.01 0.01
180°
May 17, 12:09 34.02206° -118.57815° 8 min 0.01 0.01
May 17, 12:01 34.02203° -118.57815° 2 min 0.01 0.04
180°
May 17, 11:59 34.02206° -118.57815° 8 min 0.01 0.01
180°
May 17, 11:51 34.02209° -118.57815° 2 min 0.01 0.04
May 17, 11:49 34.02206° -118.57815° 8 min 0.01 0.01
68°
May 17, 11:41 34.02206° -118.57817° 2 min 0.01 0.05
320°
May 17, 11:39 34.02203° -118.57815° 8 min 0.01 0.01
180°
May 17, 11:31 34.02206° -118.57815° 2 min 0.01 0.01
180°
May 17, 11:29 34.02206° -118.57815° 8 min 0.01 0.02
79°
May 17, 11:21 34.02206° -118.57819° 2 min 0.01 0.03
270°
May 17, 11:19 34.02206° -118.57817° 8 min 0.01 0.01
270°
May 17, 11:11 34.02206° -118.57815° 2 min 0.01 0.01
180°
May 17, 11:09 34.02206° -118.57815° 8 min 0.01 0.01
270°
May 17, 11:01 34.02206° -118.57813° 2 min 0.01 0.03
59°
May 17, 10:59 34.02206° -118.57815° 8 min 0.01 0.01
270°
May 17, 10:51 34.02206° -118.57813° 2 min 0.01 0.01
180°
May 17, 10:49 34.02206° -118.57813° 8 min 0.01 0.00
May 17, 10:41 34.02206° -118.57813° 2 min 0.01 0.03
270°
May 17, 10:39 34.02206° -118.57811° 8 min 0.01 0.00
180°
May 17, 10:31 34.02206° -118.57811° 2 min 0.01 0.00
May 17, 10:29 34.02206° -118.57811° 8 min 0.01 0.01
180°
May 17, 10:21 34.02209° -118.57811° 1 min 0.01 0.02
180°
May 17, 10:19 34.02210° -118.57811° 8 min 0.01 0.01
225°
May 17, 10:11 34.02212° -118.57809° 2 min 0.01 0.03
270°
May 17, 10:09 34.02212° -118.57806° 8 min 0.01 0.01
45°
May 17, 10:01 34.02210° -118.57809° 1 min 0.01 0.03
90°
May 17, 09:59 34.02210° -118.57811° 8 min 0.01 0.01
270°
May 17, 09:51 34.02210° -118.57809° 2 min 0.01 0.03
180°
May 17, 09:49 34.02212° -118.57809° 8 min 0.01 0.02
209°
May 17, 09:41 34.02215° -118.57806° 2 min 0.01 0.03
270°
May 17, 09:39 34.02215° -118.57804° 8 min 0.02 0.01
90°
May 17, 09:31 34.02215° -118.57806° 2 min 0.01 0.05
40°
May 17, 09:29 34.02213° -118.57809° 8 min 0.01 0.01
May 17, 09:21 34.02212° -118.57809° 2 min 0.01 0.04
239°
May 17, 09:19 34.02213° -118.57806° 8 min 0.01 0.02
203°
May 17, 09:11 34.02217° -118.57804° 2 min 0.01 0.03
90°
May 17, 09:09 34.02217° -118.57806° 8 min 0.01 0.02
59°
May 17, 09:01 34.02215° -118.57811° 2 min 0.01 0.05
220°
May 17, 08:59 34.02217° -118.57809° 8 min 0.01 0.00
180°
May 17, 08:51 34.02218° -118.57809° 1 min 0.01 0.04
90°
May 17, 08:49 34.02218° -118.57811° 8 min 0.01 0.01
220°
May 17, 08:41 34.02221° -118.57809° 2 min 0.01 0.00
May 17, 08:39 34.02221° -118.57809° 8 min 0.01 0.00
May 17, 08:31 34.02221° -118.57809° 2 min 0.01 0.04
239°
May 17, 08:29 34.02222° -118.57806° 8 min 0.01 0.02
90°
May 17, 08:21 34.02222° -118.57811° 2 min 0.01 0.02
May 17, 08:19 34.02221° -118.57811° 8 min 0.01 0.01
270°
May 17, 08:11 34.02221° -118.57809° 2 min 0.01 0.06
32°
May 17, 08:09 34.02217° -118.57811° 8 min 0.01 0.00
180°
May 17, 08:01 34.02218° -118.57811° 2 min 0.01 0.04
180°
May 17, 07:59 34.02221° -118.57811° 8 min 0.01 0.01
180°
May 17, 07:51 34.02224° -118.57811° 1 min 0.01 0.03
May 17, 07:49 34.02222° -118.57811° 8 min 0.01 0.02
May 17, 07:41 34.02218° -118.57811° 2 min 0.01 0.03
270°
May 17, 07:39 34.02218° -118.57809° 8 min 0.01 0.01
90°
May 17, 07:31 34.02218° -118.57811° 2 min 0.01 0.00
May 17, 07:29 34.02218° -118.57811° 8 min 0.01 0.00
May 17, 07:21 34.02218° -118.57811° 2 min 0.01 0.04
180°
May 17, 07:19 34.02221° -118.57811° 8 min 0.01 0.02
148°
May 17, 07:11 34.02224° -118.57813° 2 min 0.01 0.03
270°
May 17, 07:09 34.02224° -118.57811° 8 min 0.01 0.01
May 17, 07:01 34.02222° -118.57811° 2 min 0.01 0.09
37°
May 17, 06:59 34.02217° -118.57815° 7 min 0.01 0.02
23°
May 17, 06:51 34.02213° -118.57817° 2 min 0.01 0.03
90°
May 17, 06:49 34.02213° -118.57819° 8 min 0.01 0.01
90°
May 17, 06:41 34.02213° -118.57822° 2 min 0.01 0.04
59°
May 17, 06:39 34.02212° -118.57824° 8 min 0.01 0.02
209°
May 17, 06:31 34.02215° -118.57822° 2 min 0.01 0.04
180°
May 17, 06:29 34.02217° -118.57822° 8 min 0.01 0.00
May 17, 06:21 34.02217° -118.57822° 2 min 0.01 0.05
180°
May 17, 06:19 34.02221° -118.57822° 8 min 0.01 0.02
32°
May 17, 06:11 34.02217° -118.57824° 2 min 0.01 0.02
90°
May 17, 06:09 34.02217° -118.57825° 8 min 0.00 0.00
180°
May 17, 06:01 34.02218° -118.57825° 2 min 0.00 0.04
180°
May 17, 05:59 34.02221° -118.57825° 8 min 0.00 0.00
May 17, 05:51 34.02221° -118.57825° 2 min 0.00 0.04
121°
May 17, 05:49 34.02222° -118.57828° 8 min 0.00 0.02
148°
May 17, 05:41 34.02225° -118.57830° 2 min 0.00 0.04
301°
May 17, 05:39 34.02224° -118.57828° 8 min 0.00 0.01
180°
May 17, 05:31 34.02225° -118.57828° 2 min 0.00 0.03
90°
May 17, 05:29 34.02225° -118.57830° 8 min 0.00 0.02
90°
May 17, 05:21 34.02225° -118.57835° 2 min 0.00 0.00